Time;durP1;ratioP1;P1;durP2;ratioP2;P2;SDS_P1;SDS_P2;PMS_P1;PMS_P2;Temp;Humidity;BMP_temperature;BMP_pressure;BME280_temperature;BME280_humidity;BME280_pressure;Samples;Min_cycle;Max_cycle;Signal;HPM_P1;HPM_P2
2023/04/21 00:02:21;;;;;;;50.20;28.60;;;;;;;6.80;100.00;101179.81;5052794;28;20027;-76
2023/04/21 00:04:48;;;;;;;53.28;28.35;;;;;;;6.76;100.00;101175.00;5069368;28;20032;-76
2023/04/21 00:07:14;;;;;;;50.00;28.40;;;;;;;6.82;100.00;101177.94;5086519;28;20384;-76
2023/04/21 00:09:41;;;;;;;55.70;29.95;;;;;;;6.79;100.00;101178.16;5087154;28;20043;-76
2023/04/21 00:12:06;;;;;;;53.40;28.73;;;;;;;6.78;100.00;101186.00;5073954;28;20032;-76
2023/04/21 00:14:32;;;;;;;54.05;30.02;;;;;;;6.84;100.00;101182.97;5052308;28;20070;-76
2023/04/21 00:16:59;;;;;;;50.90;30.17;;;;;;;6.79;100.00;101169.63;5085794;28;20028;-76
2023/04/21 00:19:24;;;;;;;56.38;31.35;;;;;;;6.72;100.00;101165.88;5085601;28;20054;-76
2023/04/21 00:21:50;;;;;;;58.47;32.58;;;;;;;6.66;100.00;101171.53;5069247;28;20032;-76
2023/04/21 00:24:16;;;;;;;57.55;30.63;;;;;;;6.70;100.00;101158.28;5052845;28;20409;-76
2023/04/21 00:26:41;;;;;;;63.85;33.03;;;;;;;6.70;100.00;101157.47;5095783;28;20031;-76
2023/04/21 00:29:07;;;;;;;61.20;32.08;;;;;;;6.74;100.00;101157.13;5057356;28;20032;-76
2023/04/21 00:31:33;;;;;;;53.85;30.67;;;;;;;6.68;100.00;101147.28;5057296;28;20028;-76
2023/04/21 00:33:58;;;;;;;61.22;31.13;;;;;;;6.66;100.00;101148.34;5068571;28;20059;-76
2023/04/21 00:36:26;;;;;;;62.80;32.05;;;;;;;6.72;100.00;101145.28;5074891;28;20024;-76
2023/04/21 00:38:52;;;;;;;62.42;30.33;;;;;;;6.76;100.00;101146.66;5071718;28;20085;-76
2023/04/21 00:41:18;;;;;;;59.03;31.23;;;;;;;6.78;100.00;101139.63;5074792;28;20427;-76
2023/04/21 00:44:07;;;;;;;68.57;33.45;;;;;;;6.68;100.00;101136.97;5057697;28;20059;-76
2023/04/21 00:46:33;;;;;;;58.38;30.58;;;;;;;6.71;100.00;101139.31;5057185;28;20107;-76
2023/04/21 00:49:02;;;;;;;60.03;30.35;;;;;;;6.80;100.00;101133.41;5091409;28;20036;-75
2023/04/21 00:51:28;;;;;;;62.05;32.25;;;;;;;6.79;100.00;101134.34;5094469;28;20031;-76
2023/04/21 00:53:54;;;;;;;62.15;30.50;;;;;;;6.75;100.00;101127.81;5074735;28;20047;-76
2023/04/21 00:56:21;;;;;;;67.32;33.63;;;;;;;6.72;100.00;101124.66;5069745;28;20043;-76
2023/04/21 00:58:48;;;;;;;61.08;31.23;;;;;;;6.66;100.00;101123.38;5078634;28;20036;-75
2023/04/21 01:01:13;;;;;;;59.38;30.65;;;;;;;6.67;100.00;101113.88;5076484;28;20131;-75
2023/04/21 01:03:39;;;;;;;59.00;30.70;;;;;;;6.67;100.00;101116.47;5072387;28;20498;-76
2023/04/21 01:06:05;;;;;;;62.10;31.40;;;;;;;6.66;100.00;101113.06;5056472;28;20504;-75
2023/04/21 01:08:31;;;;;;;58.65;30.52;;;;;;;6.73;100.00;101118.56;5074236;28;20028;-75
2023/04/21 01:10:57;;;;;;;63.72;31.98;;;;;;;6.73;100.00;101129.69;5074472;28;20447;-76
2023/04/21 01:13:22;;;;;;;61.75;29.58;;;;;;;6.70;100.00;101127.34;5072946;28;20043;-76
2023/04/21 01:15:50;;;;;;;63.58;31.98;;;;;;;6.69;100.00;101125.72;5077472;28;20024;-76
2023/04/21 01:18:18;;;;;;;65.30;31.55;;;;;;;6.70;100.00;101113.66;5055043;28;20459;-76
2023/04/21 01:20:48;;;;;;;69.72;33.25;;;;;;;6.70;100.00;101116.22;5058821;28;20054;-76
2023/04/21 01:23:16;;;;;;;67.25;33.85;;;;;;;6.68;100.00;101118.09;5056730;28;20565;-75
2023/04/21 01:25:43;;;;;;;61.42;30.98;;;;;;;6.67;100.00;101117.31;5054670;28;20035;-76
2023/04/21 01:28:08;;;;;;;67.63;31.92;;;;;;;6.67;100.00;101112.16;5072923;28;20040;-75
2023/04/21 01:30:34;;;;;;;68.10;33.70;;;;;;;6.75;100.00;101108.94;5074691;28;20034;-76
2023/04/21 01:32:59;;;;;;;64.38;32.40;;;;;;;6.73;100.00;101103.91;5071310;28;20108;-76
2023/04/21 01:35:25;;;;;;;63.53;32.08;;;;;;;6.71;100.00;101103.22;5057403;28;20038;-76
2023/04/21 01:37:50;;;;;;;66.70;30.95;;;;;;;6.69;100.00;101099.94;5050995;28;20020;-76
2023/04/21 01:40:18;;;;;;;65.00;33.72;;;;;;;6.66;100.00;101099.38;5073071;28;20031;-76
2023/04/21 01:42:44;;;;;;;64.97;32.67;;;;;;;6.65;100.00;101097.72;5080008;28;20028;-76
2023/04/21 01:45:10;;;;;;;64.20;32.40;;;;;;;6.71;100.00;101105.00;5068673;28;20046;-75
2023/04/21 01:47:36;;;;;;;63.80;33.13;;;;;;;6.72;100.00;101098.88;5070498;28;20051;-76
2023/04/21 01:50:02;;;;;;;56.25;29.75;;;;;;;6.72;100.00;101102.25;5070748;28;20964;-75
2023/04/21 01:52:28;;;;;;;68.97;33.60;;;;;;;6.78;100.00;101106.09;5058302;28;20035;-75
2023/04/21 01:54:54;;;;;;;66.28;32.83;;;;;;;6.73;100.00;101103.91;5059230;28;20375;-76
2023/04/21 01:57:20;;;;;;;62.42;30.83;;;;;;;6.74;100.00;101099.56;5051392;28;20477;-76
2023/04/21 01:59:45;;;;;;;70.25;31.05;;;;;;;6.72;100.00;101101.47;5067387;28;20379;-76
2023/04/21 02:02:11;;;;;;;58.85;29.65;;;;;;;6.74;100.00;101104.72;5075382;28;20039;-75
2023/04/21 02:04:36;;;;;;;57.28;28.58;;;;;;;6.77;100.00;101101.91;5053171;28;20060;-76
2023/04/21 02:07:02;;;;;;;60.90;31.52;;;;;;;6.79;100.00;101106.00;5061909;28;20028;-76
2023/04/21 02:09:27;;;;;;;64.38;30.85;;;;;;;6.80;100.00;101105.06;5070957;28;20029;-76
2023/04/21 02:11:57;;;;;;;57.05;28.27;;;;;;;6.80;100.00;101109.41;5085696;28;20031;-76
2023/04/21 02:14:24;;;;;;;59.47;29.30;;;;;;;6.80;100.00;101099.09;5068052;28;20142;-76
2023/04/21 02:16:49;;;;;;;55.67;28.25;;;;;;;6.80;100.00;101107.63;5066437;28;20032;-76
2023/04/21 02:19:14;;;;;;;59.88;29.77;;;;;;;6.80;100.00;101107.63;5050963;28;20036;-76
2023/04/21 02:21:40;;;;;;;58.50;30.30;;;;;;;6.79;100.00;101107.75;5050241;28;20535;-76
2023/04/21 02:24:06;;;;;;;56.67;29.42;;;;;;;6.80;100.00;101104.25;5065075;28;20032;-76
2023/04/21 02:26:32;;;;;;;57.58;28.02;;;;;;;6.85;100.00;101103.88;5072760;28;20027;-76
2023/04/21 02:28:59;;;;;;;55.03;29.20;;;;;;;6.85;100.00;101103.88;5074755;28;20666;-76
2023/04/21 02:31:24;;;;;;;55.20;28.70;;;;;;;6.82;100.00;101095.44;5087838;28;20028;-76
2023/04/21 02:33:50;;;;;;;52.03;27.83;;;;;;;6.85;100.00;101098.72;5074503;28;20044;-76
2023/04/21 02:36:16;;;;;;;58.55;28.52;;;;;;;6.85;100.00;101089.22;5070747;28;20108;-76
2023/04/21 02:38:41;;;;;;;56.10;28.67;;;;;;;6.85;100.00;101088.41;5070983;28;20063;-75
2023/04/21 02:41:08;;;;;;;50.65;26.70;;;;;;;6.86;100.00;101090.06;5103502;28;20103;-76
2023/04/21 02:43:34;;;;;;;53.92;26.08;;;;;;;6.83;100.00;101086.75;5070431;28;20043;-76
2023/04/21 02:46:05;;;;;;;49.45;25.95;;;;;;;6.85;100.00;101084.06;5056189;28;22116;-76
2023/04/21 02:48:33;;;;;;;54.45;27.42;;;;;;;6.85;100.00;101088.41;5059695;28;20048;-76
2023/04/21 02:50:58;;;;;;;53.83;25.55;;;;;;;6.85;100.00;101090.97;5055066;28;20060;-76
2023/04/21 02:53:24;;;;;;;50.35;26.65;;;;;;;6.85;100.00;101098.72;5065719;28;20032;-76
2023/04/21 02:55:51;;;;;;;47.78;25.33;;;;;;;6.87;100.00;101089.09;5069826;28;20047;-75
2023/04/21 02:58:17;;;;;;;53.25;24.92;;;;;;;6.86;100.00;101092.63;5047739;28;20079;-76
2023/04/21 03:00:42;;;;;;;50.13;24.88;;;;;;;6.87;100.00;101086.50;5055088;28;20465;-76
2023/04/21 03:03:08;;;;;;;47.50;25.15;;;;;;;6.81;100.00;101083.47;5073230;28;20044;-76
2023/04/21 03:05:34;;;;;;;51.03;25.67;;;;;;;6.79;100.00;101079.41;5056966;28;20500;-76
2023/04/21 03:07:59;;;;;;;48.95;25.17;;;;;;;6.70;100.00;101080.94;5088313;28;21260;-76
2023/04/21 03:10:25;;;;;;;49.15;24.48;;;;;;;6.67;100.00;101085.53;5093205;28;20036;-76
2023/04/21 03:12:55;;;;;;;51.25;25.00;;;;;;;6.60;100.00;101093.75;5067081;28;20033;-76
2023/04/21 03:15:21;;;;;;;45.65;24.30;;;;;;;6.52;100.00;101090.19;5068010;28;20020;-76
2023/04/21 03:17:47;;;;;;;45.40;22.90;;;;;;;6.47;100.00;101089.72;5068078;28;20035;-76
2023/04/21 03:20:12;;;;;;;49.88;25.10;;;;;;;6.44;100.00;101085.63;5073866;28;20656;-76
2023/04/21 03:22:38;;;;;;;43.13;23.65;;;;;;;6.37;100.00;101085.28;5072485;28;20721;-76
2023/04/21 03:25:06;;;;;;;44.13;23.27;;;;;;;6.34;100.00;101085.53;5069377;28;20127;-76
2023/04/21 03:27:32;;;;;;;47.28;22.67;;;;;;;6.32;100.00;101082.25;5071077;28;20024;-76
2023/04/21 03:29:58;;;;;;;45.58;23.10;;;;;;;6.33;100.00;101078.75;5068417;28;20032;-76
2023/04/21 03:32:23;;;;;;;44.88;22.98;;;;;;;6.31;100.00;101079.81;5051662;28;20040;-76
2023/04/21 03:34:49;;;;;;;41.10;22.02;;;;;;;6.27;100.00;101081.78;5051963;28;20089;-75
2023/04/21 03:37:16;;;;;;;43.20;23.30;;;;;;;6.25;100.00;101075.94;5056294;28;20028;-76
2023/04/21 03:39:42;;;;;;;41.92;22.52;;;;;;;6.20;100.00;101080.66;5070180;28;20508;-76
2023/04/21 03:42:07;;;;;;;41.92;21.58;;;;;;;6.16;100.00;101087.81;5054165;28;20031;-76
2023/04/21 03:44:33;;;;;;;38.50;20.85;;;;;;;6.13;100.00;101088.03;5047563;28;20043;-76
2023/04/21 03:47:02;;;;;;;44.22;23.08;;;;;;;6.08;100.00;101084.19;5065657;28;20036;-76
2023/04/21 03:49:27;;;;;;;46.13;23.25;;;;;;;6.05;100.00;101092.97;5066820;28;20114;-76
2023/04/21 03:51:53;;;;;;;46.63;22.85;;;;;;;6.01;100.00;101089.81;5084218;28;20465;-76
2023/04/21 03:54:18;;;;;;;44.95;23.60;;;;;;;5.99;100.00;101089.13;5081928;28;20040;-75
2023/04/21 03:56:44;;;;;;;46.03;22.98;;;;;;;5.98;100.00;101100.34;5065364;28;20493;-76
2023/04/21 03:59:09;;;;;;;46.20;24.95;;;;;;;5.99;100.00;101096.00;5051986;28;20059;-76
2023/04/21 04:01:35;;;;;;;49.67;25.00;;;;;;;5.97;100.00;101095.31;5081563;28;20221;-76
2023/04/21 04:04:00;;;;;;;50.38;24.90;;;;;;;5.95;100.00;101094.59;5056798;28;20036;-76
2023/04/21 04:06:27;;;;;;;49.28;24.17;;;;;;;5.94;100.00;101082.66;5086279;28;20144;-76
2023/04/21 04:08:52;;;;;;;50.63;24.92;;;;;;;5.94;100.00;101088.63;5053232;28;20393;-76
2023/04/21 04:11:18;;;;;;;48.40;24.42;;;;;;;5.93;100.00;101086.97;5050569;28;20111;-76
2023/04/21 04:13:43;;;;;;;49.83;25.90;;;;;;;5.92;100.00;101100.00;5048652;28;20466;-76
2023/04/21 04:16:09;;;;;;;54.08;26.65;;;;;;;5.92;100.00;101093.06;5064210;28;20047;-76
2023/04/21 04:21:09;;;;;;;54.17;27.83;;;;;;;5.84;100.00;101095.44;5051860;28;20112;-69
2023/04/21 04:23:35;;;;;;;56.40;27.58;;;;;;;5.84;100.00;101085.94;5041512;28;20040;-70
2023/04/21 04:26:04;;;;;;;59.13;28.05;;;;;;;5.84;100.00;101088.53;5029343;28;20039;-68
2023/04/21 04:28:30;;;;;;;59.58;28.38;;;;;;;5.84;100.00;101087.72;5043422;28;20039;-70
2023/04/21 04:30:56;;;;;;;52.03;27.38;;;;;;;5.78;100.00;101089.00;5063047;28;20028;-70
2023/04/21 04:33:21;;;;;;;58.10;27.08;;;;;;;5.78;100.00;101088.16;5082408;28;20036;-69
2023/04/21 04:35:47;;;;;;;61.33;28.67;;;;;;;5.77;100.00;101087.34;5087357;28;20115;-69
2023/04/21 04:38:16;;;;;;;49.83;26.98;;;;;;;5.76;100.00;101092.59;5051569;28;20727;-69
2023/04/21 04:40:41;;;;;;;56.17;25.90;;;;;;;5.75;100.00;101084.06;5066739;28;20054;-69
2023/04/21 04:43:09;;;;;;;51.50;27.05;;;;;;;5.76;100.00;101095.19;5087135;28;20040;-69
2023/04/21 04:45:36;;;;;;;60.65;27.80;;;;;;;5.74;100.00;101089.34;5070717;28;20071;-70
2023/04/21 04:48:04;;;;;;;53.90;24.98;;;;;;;5.72;100.00;101097.16;5082358;28;20040;-70
2023/04/21 04:50:30;;;;;;;52.88;25.15;;;;;;;5.69;100.00;101092.28;5085850;28;20039;-69
2023/04/21 04:52:56;;;;;;;50.22;24.38;;;;;;;5.66;100.00;101093.31;5082632;28;20024;-69
2023/04/21 04:55:22;;;;;;;45.55;23.73;;;;;;;5.64;100.00;101090.03;5085123;28;20039;-69
2023/04/21 04:57:47;;;;;;;46.50;23.20;;;;;;;5.66;100.00;101095.88;5083300;28;20104;-70
2023/04/21 05:00:13;;;;;;;46.53;22.58;;;;;;;5.68;100.00;101089.81;5067212;28;20051;-70
2023/04/21 05:02:39;;;;;;;47.88;22.88;;;;;;;5.71;100.00;101097.28;5082667;28;20032;-71
2023/04/21 05:05:06;;;;;;;48.22;23.10;;;;;;;5.74;100.00;101097.06;5086936;28;20047;-69
2023/04/21 05:07:32;;;;;;;47.85;23.58;;;;;;;5.78;100.00;101101.03;5085029;28;20031;-70
2023/04/21 05:09:57;;;;;;;47.00;23.85;;;;;;;5.82;100.00;101095.53;5071947;28;20646;-70
2023/04/21 05:12:23;;;;;;;51.55;23.70;;;;;;;5.86;100.00;101096.13;5067962;28;20061;-69
2023/04/21 05:14:48;;;;;;;49.88;24.30;;;;;;;5.89;100.00;101095.06;5054583;28;20444;-69
2023/04/21 05:17:13;;;;;;;46.53;22.95;;;;;;;5.92;100.00;101093.06;5082432;28;20036;-69
2023/04/21 05:19:39;;;;;;;48.72;25.05;;;;;;;5.94;100.00;101093.78;5066677;28;20109;-69
2023/04/21 05:22:07;;;;;;;48.83;23.48;;;;;;;5.96;100.00;101096.25;5063148;28;20028;-69
2023/04/21 05:24:33;;;;;;;47.25;23.88;;;;;;;5.97;100.00;101098.72;5066681;28;20036;-69
2023/04/21 05:26:59;;;;;;;48.38;23.83;;;;;;;6.01;100.00;101104.47;5048804;28;20047;-69
2023/04/21 05:29:25;;;;;;;52.70;26.48;;;;;;;6.06;100.00;101109.22;5084181;28;20048;-69
2023/04/21 05:31:50;;;;;;;47.17;24.27;;;;;;;6.06;100.00;101104.09;5084128;28;20500;-69
2023/04/21 05:34:16;;;;;;;47.40;23.75;;;;;;;6.03;100.00;101103.38;5063787;28;20036;-70
2023/04/21 05:36:42;;;;;;;46.10;23.25;;;;;;;6.03;100.00;101108.53;5083629;28;20023;-70
2023/04/21 05:39:07;;;;;;;48.00;23.17;;;;;;;6.05;100.00;101111.00;5081214;28;20040;-69
2023/04/21 05:41:33;;;;;;;46.45;23.70;;;;;;;6.07;100.00;101105.75;5069716;28;20044;-69
2023/04/21 05:43:58;;;;;;;40.70;22.08;;;;;;;6.07;100.00;101092.88;5056398;28;20028;-69
2023/04/21 05:46:24;;;;;;;44.83;23.58;;;;;;;6.09;100.00;101104.66;5083711;28;20043;-69
2023/04/21 05:48:49;;;;;;;50.85;25.58;;;;;;;6.13;100.00;101100.09;5066534;28;20040;-69
2023/04/21 05:51:15;;;;;;;49.60;26.67;;;;;;;6.20;100.00;101102.09;5068965;28;20112;-69
2023/04/21 05:53:42;;;;;;;47.63;24.83;;;;;;;6.25;100.00;101106.84;5083812;28;20040;-69
2023/04/21 05:56:08;;;;;;;50.35;25.20;;;;;;;6.30;100.00;101109.09;5063650;28;20036;-69
2023/04/21 05:58:34;;;;;;;50.88;25.90;;;;;;;6.43;100.00;101108.00;5082629;28;20506;-69
2023/04/21 06:01:00;;;;;;;55.67;27.77;;;;;;;6.55;100.00;101113.09;5064427;28;20068;-69
2023/04/21 06:03:26;;;;;;;54.00;28.65;;;;;;;6.65;100.00;101114.03;5065031;28;20055;-69
2023/04/21 06:05:55;;;;;;;53.47;26.30;;;;;;;6.73;100.00;101119.38;5062920;28;20056;-69
2023/04/21 06:08:21;;;;;;;52.28;27.50;;;;;;;6.80;100.00;101107.63;5061512;28;20040;-70
2023/04/21 06:10:46;;;;;;;54.97;27.92;;;;;;;6.86;100.00;101111.47;5066117;28;20056;-69
2023/04/21 06:13:12;;;;;;;55.30;28.52;;;;;;;7.06;100.00;101109.84;5080075;28;20040;-69
2023/04/21 06:15:37;;;;;;;59.55;29.45;;;;;;;7.15;100.00;101105.69;5066256;28;20036;-69
2023/04/21 06:18:03;;;;;;;53.88;27.60;;;;;;;7.25;100.00;101106.56;5047389;28;20048;-69
2023/04/21 06:20:28;;;;;;;51.88;27.05;;;;;;;7.23;100.00;101103.31;5066596;28;20547;-69
2023/04/21 06:22:54;;;;;;;53.80;27.70;;;;;;;7.20;100.00;101101.81;5064522;28;20032;-69
2023/04/21 06:25:20;;;;;;;54.33;27.77;;;;;;;7.23;100.00;101103.31;5067353;28;20109;-69
2023/04/21 06:27:46;;;;;;;52.05;27.95;;;;;;;7.22;100.00;101102.50;5080666;28;20023;-69
2023/04/21 06:30:12;;;;;;;53.67;27.70;;;;;;;7.28;100.00;101096.00;5048923;28;20028;-69
2023/04/21 06:32:38;;;;;;;56.67;28.52;;;;;;;7.28;100.00;101111.47;5064033;28;20023;-72
2023/04/21 06:35:04;;;;;;;54.92;28.40;;;;;;;7.25;100.00;101098.84;5065349;28;20052;-69
2023/04/21 06:37:29;;;;;;;54.83;28.48;;;;;;;7.43;100.00;101095.69;5065887;28;20028;-69
2023/04/21 06:39:54;;;;;;;54.33;27.92;;;;;;;7.48;100.00;101101.25;5066296;28;20059;-69
2023/04/21 06:42:20;;;;;;;53.88;28.67;;;;;;;7.51;100.00;101112.16;5082897;28;20558;-68
2023/04/21 06:44:46;;;;;;;57.17;27.65;;;;;;;7.54;100.00;101114.47;5078907;28;20054;-69
2023/04/21 06:47:12;;;;;;;52.72;28.00;;;;;;;7.54;100.00;101117.06;5080902;28;20478;-70
2023/04/21 06:49:38;;;;;;;56.92;29.80;;;;;;;7.53;100.00;101117.19;5063171;28;20043;-69
2023/04/21 06:52:03;;;;;;;56.90;28.88;;;;;;;7.67;100.00;101103.94;5046442;28;20051;-69
2023/04/21 06:54:29;;;;;;;50.33;27.08;;;;;;;7.65;100.00;101102.44;5081242;28;20036;-69
2023/04/21 06:56:55;;;;;;;52.10;26.60;;;;;;;7.77;100.00;101107.38;5062268;28;20042;-69
2023/04/21 06:59:21;;;;;;;52.25;27.30;;;;;;;7.86;100.00;101092.06;5064101;28;20524;-69
2023/04/21 07:01:50;;;;;;;54.95;26.90;;;;;;;7.94;100.00;101087.88;5064290;28;20032;-69
2023/04/21 07:04:17;;;;;;;51.13;27.23;;;;;;;8.23;100.00;101076.81;5080245;28;20040;-69
2023/04/21 07:06:42;;;;;;;45.90;25.08;;;;;;;8.72;100.00;101071.66;5045380;28;20067;-69
2023/04/21 07:09:08;;;;;;;49.25;27.13;;;;;;;9.32;100.00;101080.03;5079790;28;20032;-69
2023/04/21 07:11:33;;;;;;;45.92;26.48;;;;;;;9.55;100.00;101077.88;5086386;28;20040;-69
2023/04/21 07:14:01;;;;;;;42.63;23.50;;;;;;;9.61;100.00;101084.28;5066532;28;20032;-69
2023/04/21 07:16:27;;;;;;;43.45;24.42;;;;;;;9.49;98.13;101086.22;5083293;28;20101;-70
2023/04/21 07:18:52;;;;;;;43.95;24.63;;;;;;;9.49;98.49;101088.81;5061815;28;20054;-70
2023/04/21 07:21:18;;;;;;;40.42;23.15;;;;;;;9.55;98.12;101082.25;5063918;28;20028;-70
2023/04/21 07:23:43;;;;;;;41.47;22.77;;;;;;;9.88;97.29;101078.28;5078272;28;20036;-69
2023/04/21 07:26:09;;;;;;;40.95;22.15;;;;;;;10.08;97.22;101078.19;5084168;28;20028;-69
2023/04/21 07:28:35;;;;;;;40.15;22.98;;;;;;;10.38;96.51;101081.41;5063975;28;20045;-69
2023/04/21 07:31:00;;;;;;;42.58;22.38;;;;;;;10.36;94.12;101080.75;5065125;28;20032;-69
2023/04/21 07:33:25;;;;;;;38.92;21.48;;;;;;;10.37;93.11;101075.41;5080572;28;20036;-69
2023/04/21 07:35:51;;;;;;;38.92;22.25;;;;;;;10.57;94.25;101080.44;5047232;28;20036;-70
2023/04/21 07:38:17;;;;;;;38.17;21.90;;;;;;;10.82;92.07;101086.66;5066499;28;20547;-69
2023/04/21 07:40:42;;;;;;;39.65;21.75;;;;;;;11.02;90.52;101085.50;5067143;28;20040;-70
2023/04/21 07:43:08;;;;;;;37.63;21.55;;;;;;;11.35;90.62;101087.50;5045115;28;20036;-70
2023/04/21 07:45:33;;;;;;;34.58;20.83;;;;;;;11.84;88.42;101085.91;5063277;28;20036;-69
2023/04/21 07:47:58;;;;;;;36.35;20.52;;;;;;;11.97;87.02;101079.50;5059558;28;20040;-70
2023/04/21 07:50:24;;;;;;;29.98;18.83;;;;;;;12.47;84.39;101070.84;5082268;28;20036;-70
2023/04/21 07:52:49;;;;;;;32.75;18.85;;;;;;;12.63;81.96;101073.41;5077376;28;20674;-70
2023/04/21 07:55:15;;;;;;;31.98;18.27;;;;;;;12.71;81.11;101077.81;5066870;28;20173;-70
2023/04/21 07:57:40;;;;;;;31.20;17.75;;;;;;;12.73;79.25;101070.63;5063300;28;20044;-71
2023/04/21 08:00:06;;;;;;;28.52;18.00;;;;;;;12.68;80.13;101066.91;5047107;28;20078;-70
2023/04/21 08:02:37;;;;;;;29.35;18.45;;;;;;;13.11;77.19;101062.31;5087227;28;20100;-70
2023/04/21 08:05:03;;;;;;;29.58;18.08;;;;;;;13.21;77.86;101068.16;5084989;28;20032;-70
2023/04/21 08:07:29;;;;;;;27.52;17.02;;;;;;;13.19;76.74;101073.53;5066843;28;20589;-70
2023/04/21 08:09:55;;;;;;;32.03;18.80;;;;;;;13.09;76.90;101072.91;5084725;28;20051;-70
2023/04/21 08:12:20;;;;;;;28.02;18.05;;;;;;;13.12;78.11;101075.16;5065559;28;20036;-70
2023/04/21 08:14:46;;;;;;;28.95;17.92;;;;;;;13.46;75.91;101081.13;5048873;28;20105;-70
2023/04/21 08:17:11;;;;;;;25.27;16.33;;;;;;;12.49;77.76;101081.88;5068029;28;20032;-71
2023/04/21 08:19:36;;;;;;;28.33;17.13;;;;;;;13.23;77.90;101068.81;5050536;28;20687;-70
2023/04/21 08:22:02;;;;;;;33.58;17.45;;;;;;;13.32;75.81;101067.03;5081909;28;20036;-70
2023/04/21 08:24:27;;;;;;;29.90;18.73;;;;;;;12.54;76.32;101077.00;5066658;28;20044;-70
2023/04/21 08:26:53;;;;;;;29.25;18.38;;;;;;;12.20;78.67;101077.91;5082758;28;20028;-70
2023/04/21 08:29:18;;;;;;;30.42;18.65;;;;;;;11.99;82.58;101072.38;5086616;28;20040;-70
2023/04/21 08:31:44;;;;;;;32.15;19.35;;;;;;;11.63;83.63;101068.16;5071770;28;20038;-70
2023/04/21 08:34:09;;;;;;;30.38;18.88;;;;;;;11.28;85.31;101069.09;5083008;28;20510;-70
2023/04/21 08:36:35;;;;;;;30.77;19.33;;;;;;;11.13;86.73;101070.66;5053893;28;20062;-70
2023/04/21 08:39:00;;;;;;;32.78;19.05;;;;;;;11.20;88.15;101071.66;5064977;28;20048;-70
2023/04/21 08:41:26;;;;;;;38.33;19.58;;;;;;;11.38;88.51;101080.22;5069230;28;20036;-70
2023/04/21 08:43:52;;;;;;;36.03;19.33;;;;;;;11.52;87.35;101071.03;5084634;28;20074;-70
2023/04/21 08:46:17;;;;;;;34.78;19.90;;;;;;;11.80;87.45;101073.41;5083405;28;20104;-70
2023/04/21 08:48:45;;;;;;;35.08;20.67;;;;;;;11.67;85.72;101073.84;5084665;28;20040;-70
2023/04/21 08:51:13;;;;;;;33.50;20.60;;;;;;;11.83;86.21;101073.09;5067195;28;20036;-71
2023/04/21 08:53:40;;;;;;;37.92;20.67;;;;;;;11.72;87.41;101063.81;5068127;28;20070;-70
2023/04/21 08:56:06;;;;;;;32.70;19.70;;;;;;;12.04;86.49;101072.72;5068466;28;20028;-70
2023/04/21 08:58:31;;;;;;;36.13;20.60;;;;;;;12.14;85.19;101062.97;5068214;28;20390;-70
2023/04/21 09:00:57;;;;;;;39.00;22.02;;;;;;;12.22;85.87;101064.78;5054728;28;20085;-70
2023/04/21 09:03:27;;;;;;;35.55;20.52;;;;;;;12.12;86.25;101067.53;5065850;28;20459;-70
2023/04/21 09:06:04;;;;;;;41.10;22.23;;;;;;;12.79;83.41;101070.00;5087700;28;20050;-70
2023/04/21 09:08:31;;;;;;;37.70;20.63;;;;;;;13.37;82.27;101067.31;5070400;28;20521;-72
2023/04/21 09:10:58;;;;;;;35.22;21.02;;;;;;;12.91;83.41;101065.28;5065784;28;20110;-70
2023/04/21 09:13:36;;;;;;;33.40;20.80;;;;;;;13.73;80.70;101065.06;5082355;28;20059;-70
2023/04/21 09:16:04;;;;;;;34.42;20.75;;;;;;;13.57;79.46;101058.13;5084326;28;20044;-71
2023/04/21 09:18:35;;;;;;;39.75;22.77;;;;;;;13.04;81.19;101049.97;5081792;28;20064;-70
2023/04/21 09:21:12;;;;;;;36.88;22.02;;;;;;;13.05;81.30;101051.59;5084659;28;20054;-70
2023/04/21 09:23:42;;;;;;;34.80;20.85;;;;;;;13.49;80.30;101049.56;5065397;28;20047;-71
2023/04/21 09:26:08;;;;;;;33.83;20.33;;;;;;;14.35;79.03;101045.97;5064211;28;20050;-70
2023/04/21 09:28:34;;;;;;;35.50;19.30;;;;;;;14.12;77.95;101050.34;5048546;28;20039;-71
2023/04/21 09:30:59;;;;;;;34.42;19.25;;;;;;;13.93;77.47;101052.41;5084287;28;21594;-70
2023/04/21 09:33:25;;;;;;;31.75;18.45;;;;;;;14.28;76.12;101050.25;5063534;28;20040;-71
2023/04/21 09:35:51;;;;;;;32.25;19.48;;;;;;;13.96;77.63;101051.28;5085384;28;20039;-71
2023/04/21 09:38:21;;;;;;;32.85;19.15;;;;;;;14.35;75.69;101051.19;5085090;28;20040;-71
2023/04/21 09:40:55;;;;;;;31.25;19.58;;;;;;;14.97;74.00;101050.19;5085515;28;20051;-71
2023/04/21 09:43:21;;;;;;;33.97;19.10;;;;;;;15.30;73.41;101039.38;5089516;28;20039;-71
2023/04/21 09:45:48;;;;;;;30.58;18.42;;;;;;;15.24;70.08;101031.44;5068978;28;20020;-72
2023/04/21 09:48:16;;;;;;;33.17;19.08;;;;;;;14.82;74.27;101038.09;5085727;28;20123;-72
2023/04/21 09:50:42;;;;;;;28.98;18.17;;;;;;;15.10;74.87;101039.09;5051492;28;20032;-70
2023/04/21 09:53:14;;;;;;;31.25;18.08;;;;;;;15.32;71.45;101037.38;5066761;28;20047;-71
2023/04/21 09:55:40;;;;;;;31.42;19.17;;;;;;;14.87;73.28;101043.59;5065218;28;20401;-71
2023/04/21 09:58:08;;;;;;;32.50;18.10;;;;;;;14.94;72.73;101034.88;5084622;28;20041;-72
2023/04/21 10:00:38;;;;;;;31.80;18.95;;;;;;;14.87;73.75;101033.94;5050672;28;20633;-71
2023/04/21 10:03:04;;;;;;;32.53;19.33;;;;;;;15.21;73.72;101024.78;5083180;28;20056;-71
2023/04/21 10:05:30;;;;;;;30.92;18.25;;;;;;;15.27;73.36;101023.25;5087431;28;20154;-71
2023/04/21 10:07:57;;;;;;;31.50;17.85;;;;;;;15.85;70.91;101010.28;5062260;28;20034;-71
2023/04/21 10:10:27;;;;;;;35.95;18.75;;;;;;;15.86;70.04;101023.19;5052980;28;20085;-72
2023/04/21 10:12:53;;;;;;;36.13;18.92;;;;;;;15.70;68.25;101018.94;5050486;28;20039;-72
2023/04/21 10:15:29;;;;;;;31.20;18.95;;;;;;;15.45;67.24;101021.06;5086093;28;20024;-73
2023/04/21 10:18:28;;;;;;;26.63;16.23;;;;;;;15.62;69.23;101021.66;5061930;28;20134;-72
2023/04/21 10:21:01;;;;;;;30.88;17.75;;;;;;;15.91;69.29;101009.53;5069129;22;20079;-71
2023/04/21 10:23:29;;;;;;;;;;;;;;;16.38;70.76;101000.28;5024375;28;20718;-71
2023/04/21 10:26:30;;;;;;;31.17;18.33;;;;;;;15.63;69.54;100999.75;5036542;28;19918;-71
2023/04/21 10:29:02;;;;;;;28.67;16.88;;;;;;;15.94;70.21;100996.91;5027538;28;20057;-72
2023/04/21 10:31:28;;;;;;;34.33;19.95;;;;;;;15.62;70.00;100998.16;5020838;28;20453;-71
2023/04/21 10:34:11;;;;;;;34.70;18.65;;;;;;;15.37;70.54;100992.44;5020413;28;20050;-71
2023/04/21 10:36:56;;;;;;;33.45;18.25;;;;;;;15.38;69.38;100986.22;5017166;28;20563;-71
2023/04/21 10:39:36;;;;;;;34.90;18.15;;;;;;;15.53;69.94;100983.56;5005351;28;20132;-71
2023/04/21 10:42:25;;;;;;;30.75;17.58;;;;;;;15.48;70.72;100985.91;4990154;28;20038;-71
2023/04/21 10:44:56;;;;;;;30.33;17.38;;;;;;;15.43;70.28;100976.03;5020143;28;20063;-71
2023/04/21 10:47:40;;;;;;;32.35;18.92;;;;;;;15.42;70.17;100977.00;5025832;28;20076;-71
2023/04/21 10:50:20;;;;;;;31.92;16.90;;;;;;;15.36;71.03;100957.66;5020004;28;20057;-71
2023/04/21 10:52:53;;;;;;;30.00;17.42;;;;;;;15.15;71.31;100961.00;5021530;28;20618;-71
2023/04/21 10:55:20;;;;;;;34.65;18.25;;;;;;;15.06;72.01;100958.69;5023919;28;20113;-71
2023/04/21 10:57:46;;;;;;;33.13;19.00;;;;;;;15.27;70.77;100953.53;5003349;28;20033;-71
2023/04/21 11:00:21;;;;;;;28.88;15.70;;;;;;;15.29;70.99;100958.56;5005753;28;20035;-71
2023/04/21 11:03:16;;;;;;;31.02;16.45;;;;;;;15.58;69.50;100952.47;5024276;28;20053;-72
2023/04/21 11:05:41;;;;;;;34.35;17.70;;;;;;;15.27;69.44;100950.91;5008188;28;20363;-71
2023/04/21 11:08:10;;;;;;;29.85;16.35;;;;;;;16.06;71.13;100949.31;5007014;28;20052;-71
2023/04/21 11:10:55;;;;;;;33.00;15.95;;;;;;;16.55;69.54;100928.34;5037122;28;20531;-71
2023/04/21 11:13:23;;;;;;;28.30;14.80;;;;;;;16.27;65.17;100941.44;5020224;28;20056;-72